Terminal Aerodrome Forecast
Issued by NWS Mobile, AL

Home | Current Version | Previous Version | Text Only | Print | Product List | Glossary On
Versions: 1 2 3 4 5 6 7 8 9 10 11 12 13 14 15 16 17 18 19 20 21 22 23 24 25 26 27 28 29 30 31
000
FTUS44 KMOB 312342
TAFPNS
TAF
KPNS 312342Z 0100/0124 32007KT P6SM VCTS SCT040CB SCT100 BKN250
     FM010200 02005KT P6SM SCT040 SCT250
     FM011900 12008KT P6SM SCT050 SCT250
      TEMPO 0119/0123 P6SM TS BKN040CB=

USA.gov is the U.S. government's official web portal to all federal, state and local government web resources and services.